createdAt,value
2023-05-22T00:01:52.946Z,90.74
2023-05-22T00:04:22.445Z,90.38
2023-05-22T00:06:49.597Z,90.40
2023-05-22T00:09:16.451Z,90.83
2023-05-22T00:11:43.392Z,90.85
2023-05-22T00:14:10.110Z,91.14
2023-05-22T00:16:36.820Z,91.41
2023-05-22T00:19:04.071Z,92.02
2023-05-22T00:21:35.217Z,92.08
2023-05-22T00:24:02.392Z,92.26
2023-05-22T00:26:29.393Z,92.29
2023-05-22T00:28:56.083Z,92.62
2023-05-22T00:31:23.570Z,93.31
2023-05-22T00:33:50.372Z,92.74
2023-05-22T00:36:18.813Z,92.98
2023-05-22T00:38:45.584Z,93.14
2023-05-22T00:41:12.260Z,92.96
2023-05-22T00:43:39.498Z,92.88
2023-05-22T00:46:08.082Z,93.18
2023-05-22T00:48:34.939Z,93.72
2023-05-22T00:51:01.836Z,94.28
2023-05-22T00:53:29.375Z,94.71
2023-05-22T00:55:57.926Z,94.26
2023-05-22T00:58:26.655Z,95.70
2023-05-22T01:00:53.533Z,95.17
2023-05-22T01:03:26.688Z,95.87
2023-05-22T01:05:54.555Z,95.02
2023-05-22T01:08:22.032Z,95.60
2023-05-22T01:10:52.794Z,96.22
2023-05-22T01:14:05.755Z,96.71
2023-05-22T01:16:54.863Z,96.56
2023-05-22T01:19:41.898Z,97.18
2023-05-22T01:22:32.668Z,97.51
2023-05-22T01:25:36.620Z,97.86
2023-05-22T01:28:32.518Z,98.64
2023-05-22T01:31:17.725Z,99.15
2023-05-22T01:33:49.658Z,98.16
2023-05-22T01:36:20.584Z,98.49
2023-05-22T01:38:47.893Z,99.83
2023-05-22T01:41:14.650Z,98.06
2023-05-22T01:43:42.238Z,97.79
2023-05-22T01:46:09.076Z,98.04
2023-05-22T01:48:36.379Z,98.06
2023-05-22T01:51:09.560Z,98.29
2023-05-22T01:53:45.644Z,97.67
2023-05-22T01:56:17.245Z,98.82
2023-05-22T01:58:56.796Z,99.68
2023-05-22T02:01:24.540Z,99.23
2023-05-22T02:03:56.780Z,99.11
2023-05-22T02:06:26.080Z,98.66
2023-05-22T02:08:53.377Z,99.53
2023-05-22T02:11:21.877Z,100.00
2023-05-22T02:13:49.336Z,100.00
2023-05-22T02:16:16.142Z,100.00
2023-05-22T02:18:43.321Z,100.00
2023-05-22T02:21:10.306Z,99.62
2023-05-22T02:23:40.896Z,100.00
2023-05-22T02:26:07.816Z,99.48
2023-05-22T02:28:34.552Z,100.00
2023-05-22T02:31:01.372Z,99.81
2023-05-22T02:33:30.161Z,100.00
2023-05-22T02:35:56.917Z,99.60
2023-05-22T02:38:23.595Z,100.00
2023-05-22T02:40:50.312Z,99.44
2023-05-22T02:43:17.019Z,100.00
2023-05-22T02:45:43.699Z,100.00
2023-05-22T02:48:10.556Z,100.00
2023-05-22T02:50:37.492Z,100.00
2023-05-22T02:53:04.438Z,99.82
2023-05-22T02:55:31.373Z,99.05
2023-05-22T02:57:58.043Z,99.21
2023-05-22T03:00:24.786Z,99.24
2023-05-22T03:02:51.689Z,99.53
2023-05-22T03:05:18.651Z,100.00
2023-05-22T03:07:48.206Z,99.08
2023-05-22T03:10:15.707Z,99.57
2023-05-22T03:12:42.486Z,100.00
2023-05-22T03:15:10.019Z,100.00
2023-05-22T03:17:36.816Z,100.00
2023-05-22T03:20:05.608Z,100.00
2023-05-22T03:22:32.710Z,100.00
2023-05-22T03:24:59.388Z,100.00
2023-05-22T03:27:26.458Z,100.00
2023-05-22T03:29:53.523Z,100.00
2023-05-22T03:32:20.188Z,100.00
2023-05-22T03:34:46.889Z,100.00
2023-05-22T03:37:13.593Z,100.00
2023-05-22T03:39:40.317Z,100.00
2023-05-22T03:42:07.107Z,100.00
2023-05-22T03:44:33.876Z,99.64
2023-05-22T03:47:00.674Z,100.00
2023-05-22T03:49:27.497Z,100.00
2023-05-22T03:51:54.189Z,100.00
2023-05-22T03:54:21.338Z,100.00
2023-05-22T03:56:48.041Z,100.00
2023-05-22T03:59:14.726Z,100.00
2023-05-22T04:01:41.536Z,100.00
2023-05-22T04:04:09.818Z,100.00
2023-05-22T04:06:43.634Z,100.00
2023-05-22T04:09:12.054Z,100.00
2023-05-22T04:11:42.652Z,100.00
2023-05-22T04:14:09.693Z,100.00
2023-05-22T04:16:36.491Z,100.00
2023-05-22T04:19:03.693Z,100.00
2023-05-22T04:21:34.610Z,100.00
2023-05-22T04:24:02.480Z,100.00
2023-05-22T04:26:32.550Z,100.00
2023-05-22T04:28:59.294Z,100.00
2023-05-22T04:31:26.397Z,100.00
2023-05-22T04:33:54.803Z,100.00
2023-05-22T04:36:26.341Z,100.00
2023-05-22T04:38:54.297Z,100.00
2023-05-22T04:41:22.821Z,100.00
2023-05-22T04:43:49.725Z,100.00
2023-05-22T04:46:16.556Z,100.00
2023-05-22T04:48:43.315Z,100.00
2023-05-22T04:51:10.154Z,100.00
2023-05-22T04:53:38.850Z,100.00
2023-05-22T04:56:06.526Z,99.62
2023-05-22T04:58:33.528Z,99.90
2023-05-22T05:01:00.462Z,100.00
2023-05-22T05:03:27.793Z,99.59
2023-05-22T05:05:54.816Z,100.00
2023-05-22T05:08:21.757Z,99.51
2023-05-22T05:10:48.485Z,100.00
2023-05-22T05:13:15.167Z,98.80
2023-05-22T05:15:41.919Z,98.80
2023-05-22T05:18:08.862Z,98.10
2023-05-22T05:20:36.120Z,97.01
2023-05-22T05:23:02.816Z,97.14
2023-05-22T05:25:29.627Z,97.59
2023-05-22T05:27:56.690Z,97.63
2023-05-22T05:30:23.620Z,96.95
2023-05-22T05:32:50.376Z,96.13
2023-05-22T05:35:17.128Z,95.97
2023-05-22T05:37:43.837Z,96.12
2023-05-22T05:40:11.349Z,97.18
2023-05-22T05:42:38.213Z,96.23
2023-05-22T05:45:05.555Z,95.92
2023-05-22T05:47:32.637Z,95.42
2023-05-22T05:49:59.534Z,94.40
2023-05-22T05:52:27.412Z,94.59
2023-05-22T05:54:54.141Z,95.40
2023-05-22T05:57:22.236Z,94.90
2023-05-22T05:59:49.270Z,93.99
2023-05-22T06:02:16.399Z,93.21
2023-05-22T06:04:43.420Z,93.75
2023-05-22T06:07:10.128Z,93.43
2023-05-22T06:09:36.818Z,92.82
2023-05-22T06:12:04.174Z,92.50
2023-05-22T06:14:31.041Z,92.12
2023-05-22T06:16:58.053Z,92.11
2023-05-22T06:19:25.007Z,92.36
2023-05-22T06:21:52.216Z,91.65
2023-05-22T06:24:20.075Z,91.70
2023-05-22T06:26:46.778Z,91.02
2023-05-22T06:29:13.428Z,90.39
2023-05-22T06:31:40.244Z,91.83
2023-05-22T06:34:07.211Z,90.08
2023-05-22T06:36:35.041Z,91.04
2023-05-22T06:39:02.606Z,89.47
2023-05-22T06:41:29.570Z,90.08
2023-05-22T06:43:56.266Z,89.57
2023-05-22T06:46:25.960Z,89.13
2023-05-22T06:48:53.416Z,88.59
2023-05-22T06:51:21.639Z,88.79
2023-05-22T06:53:48.549Z,88.93
2023-05-22T06:56:15.229Z,87.37
2023-05-22T06:58:41.938Z,86.68
2023-05-22T07:01:08.735Z,86.75
2023-05-22T07:03:36.053Z,85.42
2023-05-22T07:06:03.390Z,85.49
2023-05-22T07:08:30.721Z,86.32
2023-05-22T07:10:57.779Z,86.46
2023-05-22T07:13:25.154Z,84.33
2023-05-22T07:15:51.946Z,85.40
2023-05-22T07:18:19.367Z,84.74
2023-05-22T07:20:47.320Z,83.23
2023-05-22T07:23:13.990Z,84.57
2023-05-22T07:25:40.855Z,83.58
2023-05-22T07:28:09.302Z,83.25
2023-05-22T07:30:37.823Z,84.68
2023-05-22T07:33:05.509Z,80.25
2023-05-22T07:35:32.502Z,81.47
2023-05-22T07:37:59.221Z,79.55
2023-05-22T07:40:26.713Z,80.80
2023-05-22T07:42:53.689Z,78.38
2023-05-22T07:45:20.439Z,78.48
2023-05-22T07:47:47.413Z,79.77
2023-05-22T07:50:14.087Z,80.39
2023-05-22T07:52:40.825Z,79.41
2023-05-22T07:55:08.414Z,78.89
2023-05-22T07:57:36.522Z,78.02
2023-05-22T08:00:14.043Z,78.15
2023-05-22T08:02:41.906Z,78.28
2023-05-22T08:05:09.774Z,76.70
2023-05-22T08:07:37.214Z,77.07
2023-05-22T08:10:08.828Z,77.91
2023-05-22T08:12:35.614Z,75.65
2023-05-22T08:15:02.293Z,73.28
2023-05-22T08:17:29.004Z,73.90
2023-05-22T08:19:56.172Z,75.71
2023-05-22T08:22:22.891Z,73.80
2023-05-22T08:24:49.653Z,73.58
2023-05-22T08:27:16.349Z,71.71
2023-05-22T08:29:43.009Z,73.54
2023-05-22T08:32:10.511Z,73.87
2023-05-22T08:34:37.203Z,72.98
2023-05-22T08:37:05.541Z,69.81
2023-05-22T08:39:32.452Z,70.03
2023-05-22T08:41:59.626Z,68.87
2023-05-22T08:44:26.431Z,69.64
2023-05-22T08:46:56.803Z,69.82
2023-05-22T08:49:24.536Z,70.93
2023-05-22T08:51:54.914Z,72.80
2023-05-22T08:54:23.177Z,68.70
2023-05-22T08:56:56.879Z,68.60
2023-05-22T08:59:24.666Z,67.92
2023-05-22T09:01:53.052Z,68.17
2023-05-22T09:04:23.341Z,70.48
2023-05-22T09:06:50.871Z,69.43
2023-05-22T09:09:18.417Z,68.88
2023-05-22T09:11:45.121Z,69.32
2023-05-22T09:14:12.315Z,69.38
2023-05-22T09:16:49.282Z,69.09
2023-05-22T09:19:16.630Z,70.26
2023-05-22T09:21:44.602Z,70.74
2023-05-22T09:24:12.469Z,69.59
2023-05-22T09:26:39.818Z,68.62
2023-05-22T09:29:10.013Z,70.21
2023-05-22T09:31:44.466Z,69.52
2023-05-22T09:34:14.480Z,67.83
2023-05-22T09:36:42.168Z,69.44
2023-05-22T09:39:09.749Z,68.60
2023-05-22T09:41:38.746Z,68.08
2023-05-22T09:44:15.611Z,67.97
2023-05-22T09:46:44.703Z,68.99
2023-05-22T09:49:14.160Z,68.33
2023-05-22T09:51:44.196Z,67.33
2023-05-22T09:54:12.537Z,67.07
2023-05-22T09:56:40.476Z,68.39
2023-05-22T09:59:09.831Z,68.89
2023-05-22T10:01:39.217Z,68.22
2023-05-22T10:04:06.842Z,69.54
2023-05-22T10:06:34.947Z,69.63
2023-05-22T10:09:07.396Z,66.26
2023-05-22T10:11:34.483Z,67.71
2023-05-22T10:14:02.974Z,66.22
2023-05-22T10:16:30.743Z,67.84
2023-05-22T10:18:58.621Z,67.86
2023-05-22T10:21:26.113Z,68.74
2023-05-22T10:23:53.993Z,68.66
2023-05-22T10:26:21.605Z,68.20
2023-05-22T10:28:59.776Z,69.82
2023-05-22T10:32:02.352Z,66.63
2023-05-22T10:34:42.808Z,67.11
2023-05-22T10:37:37.600Z,67.09
2023-05-22T10:40:31.372Z,67.05
2023-05-22T10:43:02.932Z,66.36
2023-05-22T10:45:30.285Z,65.93
2023-05-22T10:48:08.066Z,64.93
2023-05-22T10:50:36.013Z,67.61
2023-05-22T10:53:25.535Z,64.13
2023-05-22T10:55:53.717Z,64.86
2023-05-22T10:58:56.341Z,65.66
2023-05-22T11:01:26.037Z,62.75
2023-05-22T11:03:59.854Z,67.29
2023-05-22T11:06:47.149Z,62.44
2023-05-22T11:09:54.618Z,63.71
2023-05-22T11:12:31.384Z,62.68
2023-05-22T11:15:09.514Z,63.19
2023-05-22T11:17:51.800Z,62.54
2023-05-22T11:20:26.071Z,62.97
2023-05-22T11:23:00.771Z,60.33
2023-05-22T11:25:28.958Z,61.41
2023-05-22T11:27:56.492Z,61.24
2023-05-22T11:30:27.454Z,61.82
2023-05-22T11:32:54.638Z,63.10
2023-05-22T11:35:22.532Z,59.09
2023-05-22T11:37:51.566Z,57.96
2023-05-22T11:40:29.824Z,58.30
2023-05-22T11:42:57.158Z,57.90
2023-05-22T11:45:24.180Z,56.51
2023-05-22T11:47:50.946Z,57.01
2023-05-22T11:50:29.228Z,55.88
2023-05-22T11:53:05.220Z,54.75
2023-05-22T11:55:33.565Z,50.87
2023-05-22T11:58:02.309Z,54.30
2023-05-22T12:00:29.695Z,56.63
2023-05-22T12:02:57.038Z,54.70
2023-05-22T12:05:23.750Z,51.55
2023-05-22T12:07:50.572Z,52.57
2023-05-22T12:10:17.295Z,52.21
2023-05-22T12:12:44.173Z,54.00
2023-05-22T12:15:11.747Z,52.87
2023-05-22T12:17:38.864Z,50.53
2023-05-22T12:20:07.591Z,50.75
2023-05-22T12:22:34.415Z,52.63
2023-05-22T12:25:01.219Z,52.53
2023-05-22T12:27:34.529Z,50.27
2023-05-22T12:30:10.721Z,47.84
2023-05-22T12:32:37.552Z,49.01
2023-05-22T12:35:04.852Z,49.84
2023-05-22T12:37:33.689Z,50.18
2023-05-22T12:40:04.386Z,51.16
2023-05-22T12:42:31.268Z,50.01
2023-05-22T12:44:58.433Z,50.73
2023-05-22T12:47:25.650Z,50.59
2023-05-22T12:49:52.704Z,51.72
2023-05-22T12:52:19.602Z,51.13
2023-05-22T12:54:46.432Z,50.51
2023-05-22T12:57:13.139Z,49.63
2023-05-22T12:59:40.112Z,49.83
2023-05-22T13:02:07.358Z,51.17
2023-05-22T13:04:34.285Z,49.46
2023-05-22T13:07:01.220Z,49.99
2023-05-22T13:09:28.134Z,51.28
2023-05-22T13:11:55.357Z,49.71
2023-05-22T13:14:22.115Z,49.11
2023-05-22T13:16:49.396Z,49.63
2023-05-22T13:19:16.512Z,49.87
2023-05-22T13:21:44.388Z,50.83
2023-05-22T13:24:11.202Z,50.79
2023-05-22T13:26:37.946Z,48.12
2023-05-22T13:29:04.707Z,50.58
2023-05-22T13:31:33.985Z,51.04
2023-05-22T13:34:03.106Z,48.00
2023-05-22T13:36:30.460Z,49.30
2023-05-22T13:38:57.253Z,48.78
2023-05-22T13:41:24.292Z,48.53
2023-05-22T13:43:50.941Z,48.58
2023-05-22T13:46:18.460Z,48.04
2023-05-22T13:48:45.242Z,47.19
2023-05-22T13:51:12.012Z,46.54
2023-05-22T13:53:38.920Z,46.25
2023-05-22T13:56:05.891Z,48.46
2023-05-22T13:58:32.579Z,46.97
2023-05-22T14:00:59.315Z,46.39
2023-05-22T14:03:26.095Z,46.71
2023-05-22T14:05:53.078Z,46.65
2023-05-22T14:08:19.804Z,46.37
2023-05-22T14:10:46.824Z,45.76
2023-05-22T14:13:13.625Z,44.95
2023-05-22T14:15:40.610Z,46.21
2023-05-22T14:18:07.640Z,46.32
2023-05-22T14:20:34.523Z,46.22
2023-05-22T14:23:01.179Z,47.90
2023-05-22T14:25:28.030Z,46.44
2023-05-22T14:27:54.947Z,45.99
2023-05-22T14:30:21.870Z,46.89
2023-05-22T14:32:48.935Z,44.86
2023-05-22T14:35:16.946Z,46.37
2023-05-22T14:37:43.977Z,47.33
2023-05-22T14:40:11.217Z,46.50
2023-05-22T14:42:37.989Z,45.65
2023-05-22T14:45:05.349Z,46.55
2023-05-22T14:47:32.014Z,46.30
2023-05-22T14:50:10.278Z,46.16
2023-05-22T14:52:45.407Z,46.87
2023-05-22T14:55:12.185Z,48.08
2023-05-22T14:57:38.946Z,47.54
2023-05-22T15:00:06.788Z,46.08
2023-05-22T15:02:33.606Z,45.99
2023-05-22T15:05:00.720Z,46.62
2023-05-22T15:07:35.952Z,45.20
2023-05-22T15:10:10.650Z,44.94
2023-05-22T15:12:37.420Z,48.26
2023-05-22T15:15:04.888Z,47.43
2023-05-22T15:17:31.676Z,46.20
2023-05-22T15:19:58.412Z,46.30
2023-05-22T15:22:25.342Z,46.44
2023-05-22T15:25:07.569Z,47.07
2023-05-22T15:27:35.499Z,46.35
2023-05-22T15:30:04.322Z,46.75
2023-05-22T15:32:34.466Z,46.61
2023-05-22T15:35:01.184Z,47.12
2023-05-22T15:37:30.216Z,46.59
2023-05-22T15:39:58.241Z,45.88
2023-05-22T15:42:25.146Z,46.40
2023-05-22T15:44:51.907Z,46.92
2023-05-22T15:47:19.232Z,46.32
2023-05-22T15:49:46.167Z,48.42
2023-05-22T15:52:12.843Z,48.49
2023-05-22T15:54:39.576Z,48.23
2023-05-22T15:57:06.507Z,46.88
2023-05-22T15:59:33.237Z,48.59
2023-05-22T16:02:00.059Z,49.82
2023-05-22T16:04:26.890Z,50.99
2023-05-22T16:06:53.969Z,51.45
2023-05-22T16:09:20.884Z,51.21
2023-05-22T16:11:47.653Z,52.35
2023-05-22T16:14:14.393Z,53.03
2023-05-22T16:16:41.531Z,53.73
2023-05-22T16:19:08.485Z,54.30
2023-05-22T16:21:35.222Z,55.41
2023-05-22T16:24:02.054Z,54.50
2023-05-22T16:26:28.772Z,56.75
2023-05-22T16:28:55.445Z,55.99
2023-05-22T16:31:22.589Z,57.45
2023-05-22T16:33:49.360Z,58.86
2023-05-22T16:36:16.135Z,57.79
2023-05-22T16:38:42.953Z,55.91
2023-05-22T16:41:09.654Z,57.36
2023-05-22T16:43:37.893Z,58.45
2023-05-22T16:46:04.897Z,58.65
2023-05-22T16:48:31.868Z,58.23
2023-05-22T16:50:58.864Z,58.09
2023-05-22T16:53:25.640Z,58.40
2023-05-22T16:55:52.667Z,57.75
2023-05-22T16:58:19.426Z,59.05
2023-05-22T17:00:46.226Z,59.60
2023-05-22T17:03:14.412Z,59.74
2023-05-22T17:05:41.449Z,59.28
2023-05-22T17:08:08.581Z,58.90
2023-05-22T17:10:35.638Z,59.36
2023-05-22T17:13:02.334Z,59.88
2023-05-22T17:15:29.098Z,61.63
2023-05-22T17:17:55.943Z,62.41
2023-05-22T17:20:23.269Z,63.50
2023-05-22T17:22:50.298Z,63.68
2023-05-22T17:25:17.265Z,63.75
2023-05-22T17:27:44.442Z,65.67
2023-05-22T17:30:11.648Z,66.07
2023-05-22T17:32:38.470Z,66.10
2023-05-22T17:35:07.060Z,67.30
2023-05-22T17:37:34.271Z,67.15
2023-05-22T17:40:01.276Z,66.60
2023-05-22T17:42:28.019Z,67.73
2023-05-22T17:44:54.796Z,68.74
2023-05-22T17:47:21.891Z,68.46
2023-05-22T17:49:48.835Z,68.49
2023-05-22T17:52:15.814Z,69.83
2023-05-22T17:54:42.505Z,69.95
2023-05-22T17:57:09.263Z,71.26
2023-05-22T17:59:37.895Z,71.88
2023-05-22T18:02:06.281Z,73.73
2023-05-22T18:04:36.872Z,74.01
2023-05-22T18:07:04.392Z,73.19
2023-05-22T18:09:31.103Z,73.01
2023-05-22T18:11:59.367Z,72.59
2023-05-22T18:14:26.263Z,72.76
2023-05-22T18:16:53.542Z,73.10
2023-05-22T18:19:20.192Z,73.94
2023-05-22T18:21:46.896Z,72.91
2023-05-22T18:24:13.719Z,73.63
2023-05-22T18:26:40.421Z,72.38
2023-05-22T18:29:07.118Z,72.00
2023-05-22T18:31:33.920Z,72.23
2023-05-22T18:34:00.746Z,72.46
2023-05-22T18:36:27.697Z,72.19
2023-05-22T18:38:54.394Z,72.34
2023-05-22T18:41:21.169Z,72.05
2023-05-22T18:43:47.842Z,73.08
2023-05-22T18:46:14.632Z,74.52
2023-05-22T18:48:41.557Z,75.13
2023-05-22T18:51:08.247Z,74.56
2023-05-22T18:53:34.935Z,74.63
2023-05-22T18:56:01.898Z,74.58
2023-05-22T18:58:28.609Z,75.03
2023-05-22T19:00:56.179Z,73.19
2023-05-22T19:03:23.120Z,70.88
2023-05-22T19:05:49.830Z,68.29
2023-05-22T19:08:16.507Z,68.07
2023-05-22T19:10:43.360Z,69.01
2023-05-22T19:13:10.179Z,70.04
2023-05-22T19:15:37.832Z,70.45
2023-05-22T19:18:04.682Z,71.53
2023-05-22T19:20:31.732Z,72.78
2023-05-22T19:22:58.716Z,73.70
2023-05-22T19:25:25.752Z,73.71
2023-05-22T19:27:52.540Z,76.16
2023-05-22T19:30:19.408Z,78.99
2023-05-22T19:32:47.012Z,80.87
2023-05-22T19:35:14.135Z,82.24
2023-05-22T19:37:40.804Z,82.86
2023-05-22T19:40:09.920Z,83.51
2023-05-22T19:42:37.690Z,85.06
2023-05-22T19:45:05.936Z,86.35
2023-05-22T19:47:32.796Z,88.15
2023-05-22T19:49:59.652Z,88.39
2023-05-22T19:52:29.244Z,89.95
2023-05-22T19:54:56.196Z,90.53
2023-05-22T19:57:22.948Z,93.47
2023-05-22T19:59:50.361Z,94.74
2023-05-22T20:02:17.197Z,97.69
2023-05-22T20:04:44.006Z,97.41
2023-05-22T20:07:10.856Z,95.96
2023-05-22T20:09:37.558Z,91.15
2023-05-22T20:12:04.432Z,90.59
2023-05-22T20:14:31.174Z,93.42
2023-05-22T20:16:59.263Z,95.11
2023-05-22T20:19:27.431Z,96.79
2023-05-22T20:21:54.356Z,97.72
2023-05-22T20:24:21.406Z,95.53
2023-05-22T20:26:48.187Z,95.31
2023-05-22T20:29:15.034Z,94.23
2023-05-22T20:31:42.256Z,93.88
2023-05-22T20:34:12.002Z,93.47
2023-05-22T20:36:39.575Z,92.46
2023-05-22T20:39:07.166Z,89.99
2023-05-22T20:41:34.114Z,89.40
2023-05-22T20:44:02.836Z,89.53
2023-05-22T20:46:29.740Z,88.94
2023-05-22T20:48:58.570Z,90.77
2023-05-22T20:51:32.666Z,93.44
2023-05-22T20:54:00.259Z,94.77
2023-05-22T20:56:27.338Z,96.42
2023-05-22T20:58:54.564Z,98.59
2023-05-22T21:01:21.556Z,99.61
2023-05-22T21:03:50.355Z,98.23
2023-05-22T21:06:17.474Z,100.00
2023-05-22T21:08:44.183Z,99.69
2023-05-22T21:11:11.003Z,100.00
2023-05-22T21:13:37.732Z,100.00
2023-05-22T21:16:04.641Z,100.00
2023-05-22T21:18:31.382Z,100.00
2023-05-22T21:20:58.141Z,100.00
2023-05-22T21:23:24.859Z,100.00
2023-05-22T21:25:51.693Z,100.00
2023-05-22T21:28:18.373Z,100.00
2023-05-22T21:30:45.213Z,100.00
2023-05-22T21:33:12.272Z,100.00
2023-05-22T21:35:39.311Z,100.00
2023-05-22T21:38:06.003Z,100.00
2023-05-22T21:40:32.715Z,100.00
2023-05-22T21:42:59.450Z,100.00
2023-05-22T21:45:26.113Z,100.00
2023-05-22T21:47:52.952Z,100.00
2023-05-22T21:50:19.749Z,100.00
2023-05-22T21:52:46.435Z,100.00
2023-05-22T21:55:13.149Z,100.00
2023-05-22T21:57:42.334Z,100.00
2023-05-22T22:00:09.941Z,100.00
2023-05-22T22:02:37.281Z,100.00
2023-05-22T22:05:04.728Z,100.00
2023-05-22T22:07:31.536Z,100.00
2023-05-22T22:09:59.130Z,100.00
2023-05-22T22:12:26.046Z,100.00
2023-05-22T22:14:52.815Z,100.00
2023-05-22T22:17:23.985Z,100.00
2023-05-22T22:19:53.775Z,100.00
2023-05-22T22:22:22.868Z,100.00
2023-05-22T22:24:49.727Z,100.00
2023-05-22T22:27:16.687Z,100.00
2023-05-22T22:29:44.148Z,100.00
2023-05-22T22:32:11.030Z,100.00
2023-05-22T22:34:38.076Z,100.00
2023-05-22T22:37:06.150Z,100.00
2023-05-22T22:39:32.837Z,100.00
2023-05-22T22:42:04.334Z,100.00
2023-05-22T22:44:32.438Z,100.00
2023-05-22T22:46:59.361Z,100.00
2023-05-22T22:49:26.048Z,100.00
2023-05-22T22:51:52.793Z,100.00
2023-05-22T22:54:19.853Z,100.00
2023-05-22T22:56:47.321Z,100.00
2023-05-22T22:59:14.074Z,100.00
2023-05-22T23:01:40.967Z,100.00
2023-05-22T23:04:07.961Z,100.00
2023-05-22T23:06:34.873Z,100.00
2023-05-22T23:09:03.599Z,100.00
2023-05-22T23:11:39.462Z,100.00
2023-05-22T23:14:10.012Z,100.00
2023-05-22T23:16:37.811Z,100.00
2023-05-22T23:19:04.906Z,100.00
2023-05-22T23:21:32.111Z,100.00
2023-05-22T23:23:59.607Z,100.00
2023-05-22T23:26:27.649Z,100.00
2023-05-22T23:28:54.739Z,100.00
2023-05-22T23:31:26.142Z,100.00
2023-05-22T23:33:53.336Z,100.00
2023-05-22T23:36:20.043Z,100.00
2023-05-22T23:38:47.343Z,100.00
2023-05-22T23:41:15.354Z,100.00
2023-05-22T23:43:42.497Z,100.00
2023-05-22T23:46:09.269Z,100.00
2023-05-22T23:48:36.220Z,100.00
2023-05-22T23:51:03.117Z,100.00
2023-05-22T23:53:29.860Z,100.00
2023-05-22T23:55:56.564Z,100.00
2023-05-22T23:58:23.520Z,100.00
